createdAt,value
2022-12-11T00:00:22.623Z,79.25
2022-12-11T00:02:49.372Z,84.32
2022-12-11T00:05:15.736Z,87.60
2022-12-11T00:07:42.180Z,79.53
2022-12-11T00:10:09.416Z,74.05
2022-12-11T00:12:35.798Z,80.72
2022-12-11T00:15:02.093Z,80.30
2022-12-11T00:17:28.416Z,76.53
2022-12-11T00:19:54.754Z,82.97
2022-12-11T00:22:21.103Z,74.15
2022-12-11T00:24:47.386Z,80.03
2022-12-11T00:27:13.726Z,79.13
2022-12-11T00:29:40.115Z,77.38
2022-12-11T00:32:06.545Z,72.70
2022-12-11T00:34:32.870Z,80.05
2022-12-11T00:36:59.269Z,84.38
2022-12-11T00:39:25.672Z,76.53
2022-12-11T00:41:52.030Z,77.00
2022-12-11T00:44:18.306Z,94.50
2022-12-11T00:46:44.694Z,78.53
2022-12-11T00:49:11.017Z,71.05
2022-12-11T00:51:38.050Z,81.45
2022-12-11T00:54:04.528Z,72.10
2022-12-11T00:56:30.854Z,85.15
2022-12-11T00:58:57.248Z,72.68
2022-12-11T01:01:25.170Z,85.40
2022-12-11T01:03:51.976Z,70.78
2022-12-11T01:06:20.176Z,73.72
2022-12-11T01:08:47.180Z,81.82
2022-12-11T01:11:14.765Z,81.88
2022-12-11T01:13:41.740Z,79.90
2022-12-11T01:16:12.658Z,77.25
2022-12-11T01:18:38.994Z,86.60
2022-12-11T01:21:09.638Z,90.28
2022-12-11T01:23:36.017Z,91.68
2022-12-11T01:26:20.501Z,78.53
2022-12-11T01:28:49.393Z,83.45
2022-12-11T01:31:16.837Z,77.93
2022-12-11T01:33:43.702Z,87.93
2022-12-11T01:36:11.798Z,84.05
2022-12-11T01:38:38.193Z,91.35
2022-12-11T01:41:04.595Z,82.45
2022-12-11T01:43:30.900Z,90.60
2022-12-11T01:45:57.239Z,94.70
2022-12-11T01:48:25.450Z,96.65
2022-12-11T01:51:05.014Z,81.70
2022-12-11T01:53:33.820Z,89.68
2022-12-11T01:56:00.369Z,97.38
2022-12-11T01:58:29.579Z,84.40
2022-12-11T02:00:56.556Z,84.00
2022-12-11T02:03:23.063Z,86.85
2022-12-11T02:05:49.518Z,95.65
2022-12-11T02:08:16.245Z,95.20
2022-12-11T02:10:53.808Z,83.20
2022-12-11T02:13:33.205Z,88.60
2022-12-11T02:16:06.446Z,84.47
2022-12-11T02:18:38.853Z,83.30
2022-12-11T02:21:23.801Z,87.55
2022-12-11T02:24:02.786Z,90.25
2022-12-11T02:26:32.094Z,82.82
2022-12-11T02:28:59.546Z,71.65
2022-12-11T02:31:44.370Z,77.30
2022-12-11T02:34:18.314Z,83.78
2022-12-11T02:36:48.369Z,77.28
2022-12-11T02:39:15.811Z,76.15
2022-12-11T02:41:43.902Z,86.15
2022-12-11T02:44:12.628Z,77.57
2022-12-11T02:46:39.552Z,81.60
2022-12-11T02:49:07.141Z,66.22
2022-12-11T02:51:36.170Z,70.80
2022-12-11T02:54:03.128Z,71.68
2022-12-11T02:56:32.759Z,85.13
2022-12-11T02:59:06.733Z,78.95
2022-12-11T03:01:33.112Z,77.43
2022-12-11T03:03:59.563Z,68.88
2022-12-11T03:06:29.321Z,76.07
2022-12-11T03:08:55.703Z,65.10
2022-12-11T03:11:21.990Z,67.35
2022-12-11T03:13:48.335Z,69.35
2022-12-11T03:16:19.865Z,74.18
2022-12-11T03:19:08.978Z,66.97
2022-12-11T03:21:38.434Z,64.82
2022-12-11T03:24:13.933Z,69.40
2022-12-11T03:26:43.974Z,64.47
2022-12-11T03:29:16.627Z,62.08
2022-12-11T03:31:51.125Z,60.28
2022-12-11T03:34:26.829Z,68.13
2022-12-11T03:39:22.947Z,55.97
2022-12-11T03:41:50.846Z,50.20
2022-12-11T03:44:18.224Z,61.60
2022-12-11T03:46:46.784Z,61.70
2022-12-11T03:49:16.623Z,45.90
2022-12-11T03:51:44.669Z,53.80
2022-12-11T03:54:11.896Z,56.97
2022-12-11T03:56:38.588Z,53.38
2022-12-11T03:59:04.978Z,53.40
2022-12-11T04:01:31.367Z,50.80
2022-12-11T04:03:57.706Z,51.78
2022-12-11T04:06:24.065Z,56.90
2022-12-11T04:08:50.423Z,50.95
2022-12-11T04:11:35.067Z,52.80
2022-12-11T04:14:24.111Z,49.65
2022-12-11T04:16:50.668Z,47.97
2022-12-11T04:19:35.884Z,52.60
2022-12-11T04:22:20.602Z,49.53
2022-12-11T04:24:50.180Z,53.63
2022-12-11T04:27:39.462Z,43.10
2022-12-11T04:30:06.873Z,43.83
2022-12-11T04:32:33.199Z,45.75
2022-12-11T04:34:59.576Z,49.42
2022-12-11T04:37:26.936Z,41.22
2022-12-11T04:39:53.252Z,36.17
2022-12-11T04:42:19.812Z,36.05
2022-12-11T04:44:46.118Z,35.60
2022-12-11T04:47:12.742Z,34.78
2022-12-11T04:49:39.255Z,37.33
2022-12-11T04:52:05.663Z,37.85
2022-12-11T04:54:32.531Z,39.25
2022-12-11T04:56:58.822Z,37.03
2022-12-11T04:59:25.089Z,43.30
2022-12-11T05:01:51.498Z,38.60
2022-12-11T05:04:17.849Z,34.10
2022-12-11T05:06:44.204Z,37.10
2022-12-11T05:09:11.856Z,33.90
2022-12-11T05:11:38.179Z,46.85
2022-12-11T05:14:04.803Z,43.45
2022-12-11T05:16:31.125Z,37.53
2022-12-11T05:18:57.422Z,36.42
2022-12-11T05:21:23.801Z,34.83
2022-12-11T05:23:50.131Z,36.50
2022-12-11T05:26:17.693Z,38.13
2022-12-11T05:28:44.568Z,36.72
2022-12-11T05:31:18.379Z,37.47
2022-12-11T05:33:45.402Z,42.25
2022-12-11T05:36:25.415Z,35.53
2022-12-11T05:38:52.342Z,33.95
2022-12-11T05:41:20.365Z,33.35
2022-12-11T05:43:47.271Z,33.35
2022-12-11T05:46:20.839Z,34.72
2022-12-11T05:48:49.307Z,36.03
2022-12-11T05:51:16.251Z,35.25
2022-12-11T05:53:43.080Z,34.15
2022-12-11T05:56:13.777Z,36.92
2022-12-11T05:58:40.880Z,32.35
2022-12-11T06:01:08.185Z,36.20
2022-12-11T06:03:34.508Z,31.20
2022-12-11T06:06:07.168Z,33.40
2022-12-11T06:08:33.758Z,35.42
2022-12-11T06:11:00.168Z,35.15
2022-12-11T06:13:26.758Z,39.03
2022-12-11T06:15:53.124Z,34.03
2022-12-11T06:18:19.561Z,38.08
2022-12-11T06:20:45.981Z,36.05
2022-12-11T06:23:12.693Z,34.03
2022-12-11T06:25:39.700Z,34.65
2022-12-11T06:28:06.075Z,35.33
2022-12-11T06:30:39.267Z,34.58
2022-12-11T06:33:06.152Z,32.60
2022-12-11T06:35:36.156Z,37.67
2022-12-11T06:38:06.558Z,35.72
2022-12-11T06:40:32.902Z,37.40
2022-12-11T06:42:59.196Z,34.03
2022-12-11T06:45:25.475Z,38.22
2022-12-11T06:47:51.859Z,32.10
2022-12-11T06:50:18.167Z,32.33
2022-12-11T06:52:44.496Z,35.40
2022-12-11T06:55:11.201Z,35.42
2022-12-11T06:57:37.600Z,33.17
2022-12-11T07:00:04.405Z,34.65
2022-12-11T07:02:30.703Z,39.25
2022-12-11T07:04:57.007Z,33.13
2022-12-11T07:07:23.338Z,35.55
2022-12-11T07:09:49.603Z,32.55
2022-12-11T07:12:16.978Z,32.10
2022-12-11T07:14:43.785Z,33.47
2022-12-11T07:17:10.079Z,34.67
2022-12-11T07:19:36.392Z,36.90
2022-12-11T07:22:02.860Z,35.45
2022-12-11T07:24:29.184Z,38.30
2022-12-11T07:26:55.502Z,42.65
2022-12-11T07:29:21.837Z,37.20
2022-12-11T07:31:48.421Z,37.85
2022-12-11T07:34:14.756Z,35.85
2022-12-11T07:36:41.243Z,41.00
2022-12-11T07:39:08.959Z,42.60
2022-12-11T07:41:35.333Z,44.00
2022-12-11T07:44:02.664Z,41.55
2022-12-11T07:46:29.922Z,40.42
2022-12-11T07:48:56.215Z,40.30
2022-12-11T07:51:26.371Z,44.78
2022-12-11T07:53:53.160Z,39.25
2022-12-11T07:56:19.552Z,39.85
2022-12-11T07:58:46.160Z,44.05
2022-12-11T08:01:13.783Z,38.20
2022-12-11T08:03:40.334Z,38.88
2022-12-11T08:06:06.822Z,40.80
2022-12-11T08:08:33.081Z,38.90
2022-12-11T08:11:03.527Z,41.92
2022-12-11T08:13:29.900Z,38.65
2022-12-11T08:15:56.261Z,37.58
2022-12-11T08:18:22.594Z,40.08
2022-12-11T08:20:48.922Z,38.25
2022-12-11T08:23:15.170Z,41.58
2022-12-11T08:25:41.434Z,39.15
2022-12-11T08:28:07.762Z,35.88
2022-12-11T08:30:34.134Z,37.20
2022-12-11T08:33:00.425Z,37.85
2022-12-11T08:35:26.936Z,36.83
2022-12-11T08:37:53.213Z,39.42
2022-12-11T08:40:20.293Z,45.47
2022-12-11T08:42:46.566Z,38.58
2022-12-11T08:45:13.130Z,33.47
2022-12-11T08:47:39.667Z,35.95
2022-12-11T08:50:06.314Z,38.75
2022-12-11T08:52:34.428Z,35.17
2022-12-11T08:55:00.726Z,39.28
2022-12-11T08:57:27.817Z,40.42
2022-12-11T08:59:54.141Z,38.33
2022-12-11T09:02:20.443Z,37.53
2022-12-11T09:04:46.807Z,36.85
2022-12-11T09:07:13.084Z,39.88
2022-12-11T09:09:39.446Z,40.25
2022-12-11T09:12:05.836Z,39.70
2022-12-11T09:14:32.239Z,39.17
2022-12-11T09:16:58.557Z,38.53
2022-12-11T09:19:30.622Z,39.20
2022-12-11T09:21:58.632Z,34.88
2022-12-11T09:24:24.908Z,38.55
2022-12-11T09:26:51.232Z,34.15
2022-12-11T09:29:17.515Z,34.30
2022-12-11T09:31:44.254Z,35.42
2022-12-11T09:34:12.287Z,38.30
2022-12-11T09:36:40.036Z,34.38
2022-12-11T09:39:08.305Z,34.75
2022-12-11T09:41:47.942Z,34.65
2022-12-11T09:44:29.555Z,35.35
2022-12-11T09:46:56.954Z,32.42
2022-12-11T09:49:29.186Z,37.38
2022-12-11T09:52:14.253Z,33.22
2022-12-11T09:54:54.527Z,36.17
2022-12-11T09:57:20.825Z,34.03
2022-12-11T10:00:05.989Z,32.53
2022-12-11T10:02:38.623Z,34.20
2022-12-11T10:05:04.922Z,36.80
2022-12-11T10:07:34.245Z,32.70
2022-12-11T10:10:03.526Z,34.05
2022-12-11T10:12:33.494Z,34.28
2022-12-11T10:14:59.896Z,35.67
2022-12-11T10:17:31.037Z,31.58
2022-12-11T10:19:58.473Z,31.73
2022-12-11T10:22:27.184Z,28.20
2022-12-11T10:25:16.289Z,32.33
2022-12-11T10:27:43.886Z,31.35
2022-12-11T10:30:13.956Z,29.05
2022-12-11T10:32:48.605Z,33.10
2022-12-11T10:35:23.780Z,31.70
2022-12-11T10:37:50.511Z,34.35
2022-12-11T10:40:18.220Z,32.92
2022-12-11T10:42:52.260Z,32.33
2022-12-11T10:45:18.716Z,30.52
2022-12-11T10:47:45.804Z,36.58
2022-12-11T10:50:22.998Z,30.70
2022-12-11T10:52:49.410Z,30.73
2022-12-11T10:55:27.286Z,31.38
2022-12-11T10:57:54.693Z,31.67
2022-12-11T11:00:33.083Z,32.17
2022-12-11T11:02:59.948Z,31.15
2022-12-11T11:05:34.634Z,29.90
2022-12-11T11:08:13.001Z,27.63
2022-12-11T11:10:49.633Z,28.83
2022-12-11T11:13:15.895Z,31.52
2022-12-11T11:15:42.999Z,28.48
2022-12-11T11:18:22.298Z,29.08
2022-12-11T11:20:48.670Z,28.75
2022-12-11T11:23:15.933Z,29.13
2022-12-11T11:25:50.253Z,28.70
2022-12-11T11:28:21.493Z,28.75
2022-12-11T11:30:58.997Z,32.88
2022-12-11T11:33:25.583Z,27.73
2022-12-11T11:35:57.013Z,30.20
2022-12-11T11:38:26.235Z,27.67
2022-12-11T11:40:52.540Z,28.38
2022-12-11T11:43:22.649Z,28.15
2022-12-11T11:45:53.677Z,24.92
2022-12-11T11:48:25.907Z,28.65
2022-12-11T11:50:53.890Z,25.73
2022-12-11T11:53:31.571Z,27.65
2022-12-11T11:56:03.965Z,28.25
2022-12-11T11:58:43.073Z,26.45
2022-12-11T12:01:16.309Z,28.35
2022-12-11T12:03:43.081Z,31.52
2022-12-11T12:06:19.004Z,30.33
2022-12-11T12:08:51.156Z,25.17
2022-12-11T12:11:30.974Z,26.00
2022-12-11T12:14:43.588Z,27.17
2022-12-11T12:17:25.239Z,25.90
2022-12-11T12:19:57.656Z,23.27
2022-12-11T12:22:35.010Z,22.75
2022-12-11T12:25:14.576Z,27.10
2022-12-11T12:28:07.076Z,23.30
2022-12-11T12:30:54.573Z,25.40
2022-12-11T12:33:44.239Z,27.83
2022-12-11T12:36:13.334Z,23.60
2022-12-11T12:38:53.779Z,22.02
2022-12-11T12:41:22.525Z,24.48
2022-12-11T12:44:02.979Z,25.33
2022-12-11T12:46:48.426Z,28.05
2022-12-11T12:49:23.895Z,24.60
2022-12-11T12:51:51.496Z,27.60
2022-12-11T12:54:18.886Z,25.65
2022-12-11T12:56:47.006Z,27.30
2022-12-11T12:59:20.636Z,30.30
2022-12-11T13:01:48.271Z,28.63
2022-12-11T13:04:54.458Z,27.67
2022-12-11T13:07:20.473Z,27.65
2022-12-11T13:10:00.424Z,30.25
2022-12-11T13:12:32.506Z,29.33
2022-12-11T13:14:59.510Z,27.60
2022-12-11T13:17:34.700Z,28.35
2022-12-11T13:20:15.031Z,28.42
2022-12-11T13:22:53.600Z,31.70
2022-12-11T13:25:30.475Z,30.33
2022-12-11T13:28:20.001Z,28.27
2022-12-11T13:30:57.375Z,26.52
2022-12-11T13:33:24.116Z,30.88
2022-12-11T13:36:25.785Z,32.13
2022-12-11T13:38:54.837Z,30.33
2022-12-11T13:41:21.405Z,27.55
2022-12-11T13:43:49.045Z,32.90
2022-12-11T13:46:19.313Z,30.58
2022-12-11T13:48:50.572Z,26.77
2022-12-11T13:51:18.708Z,27.25
2022-12-11T13:53:45.261Z,31.00
2022-12-11T13:56:18.943Z,29.58
2022-12-11T13:58:45.380Z,30.70
2022-12-11T14:01:22.503Z,34.53
2022-12-11T14:03:56.376Z,33.53
2022-12-11T14:06:23.845Z,34.55
2022-12-11T14:08:53.418Z,33.47
2022-12-11T14:11:24.799Z,33.22
2022-12-11T14:13:51.115Z,35.08
2022-12-11T14:16:22.221Z,31.67
2022-12-11T14:18:49.622Z,30.95
2022-12-11T14:21:20.380Z,33.38
2022-12-11T14:23:54.450Z,34.35
2022-12-11T14:26:23.437Z,35.63
2022-12-11T14:28:49.834Z,27.13
2022-12-11T14:31:18.206Z,35.75
2022-12-11T14:33:47.950Z,34.55
2022-12-11T14:36:15.242Z,38.17
2022-12-11T14:38:47.182Z,31.83
2022-12-11T14:41:16.146Z,35.13
2022-12-11T14:43:44.125Z,32.60
2022-12-11T14:46:15.699Z,29.90
2022-12-11T14:48:47.967Z,35.08
2022-12-11T14:51:16.104Z,31.98
2022-12-11T14:53:44.691Z,37.17
2022-12-11T14:56:17.430Z,28.48
2022-12-11T14:58:48.007Z,37.90
2022-12-11T15:01:31.113Z,36.55
2022-12-11T15:04:16.023Z,36.50
2022-12-11T15:06:44.226Z,32.28
2022-12-11T15:09:25.144Z,36.50
2022-12-11T15:11:52.188Z,31.40
2022-12-11T15:14:19.656Z,31.23
2022-12-11T15:16:47.433Z,36.50
2022-12-11T15:19:20.060Z,33.03
2022-12-11T15:21:46.513Z,35.85
2022-12-11T15:24:22.515Z,37.10
2022-12-11T15:26:48.848Z,36.05
2022-12-11T15:29:27.394Z,36.30
2022-12-11T15:32:09.160Z,39.40
2022-12-11T15:34:42.231Z,35.90
2022-12-11T15:37:40.039Z,34.75
2022-12-11T15:40:06.598Z,35.25
2022-12-11T15:42:32.981Z,38.20
2022-12-11T15:44:59.670Z,37.75
2022-12-11T15:47:27.650Z,37.38
2022-12-11T15:49:55.061Z,37.42
2022-12-11T15:52:21.367Z,41.63
2022-12-11T15:54:47.652Z,36.50
2022-12-11T15:57:16.543Z,29.17
2022-12-11T15:59:43.207Z,35.67
2022-12-11T16:02:11.368Z,33.28
2022-12-11T16:04:37.678Z,35.75
2022-12-11T16:07:04.121Z,28.88
2022-12-11T16:09:30.468Z,31.23
2022-12-11T16:11:56.821Z,34.97
2022-12-11T16:14:23.054Z,33.35
2022-12-11T16:16:49.331Z,42.58
2022-12-11T16:19:15.662Z,37.90
2022-12-11T16:21:42.490Z,34.03
2022-12-11T16:24:08.847Z,32.58
2022-12-11T16:26:35.150Z,33.13
2022-12-11T16:29:01.682Z,35.00
2022-12-11T16:31:28.849Z,37.65
2022-12-11T16:33:55.187Z,32.88
2022-12-11T16:36:21.570Z,31.08
2022-12-11T16:38:53.146Z,35.15
2022-12-11T16:41:20.478Z,33.40
2022-12-11T16:43:47.703Z,31.42
2022-12-11T16:46:17.447Z,35.80
2022-12-11T16:48:44.606Z,36.55
2022-12-11T16:51:11.190Z,40.53
2022-12-11T16:53:37.594Z,37.80
2022-12-11T16:56:05.286Z,41.58
2022-12-11T16:58:31.639Z,38.75
2022-12-11T17:01:02.206Z,33.90
2022-12-11T17:03:30.036Z,35.90
2022-12-11T17:05:56.691Z,33.75
2022-12-11T17:08:25.123Z,35.63
2022-12-11T17:10:52.007Z,31.88
2022-12-11T17:13:18.472Z,27.13
2022-12-11T17:15:45.082Z,28.70
2022-12-11T17:18:12.229Z,27.23
2022-12-11T17:20:42.331Z,32.92
2022-12-11T17:23:10.385Z,37.38
2022-12-11T17:25:43.882Z,38.95
2022-12-11T17:28:10.725Z,33.47
2022-12-11T17:30:44.470Z,37.83
2022-12-11T17:33:11.344Z,37.97
2022-12-11T17:35:37.908Z,33.33
2022-12-11T17:38:04.955Z,33.33
2022-12-11T17:40:31.420Z,33.35
2022-12-11T17:42:57.700Z,35.17
2022-12-11T17:45:24.034Z,32.47
2022-12-11T17:47:50.340Z,33.30
2022-12-11T17:50:16.918Z,31.10
2022-12-11T17:52:44.478Z,33.35
2022-12-11T17:55:11.793Z,35.13
2022-12-11T17:57:38.429Z,41.63
2022-12-11T18:00:05.434Z,32.08
2022-12-11T18:02:32.032Z,33.83
2022-12-11T18:04:58.342Z,32.85
2022-12-11T18:07:25.209Z,35.90
2022-12-11T18:09:51.550Z,32.38
2022-12-11T18:12:17.895Z,30.90
2022-12-11T18:14:44.410Z,32.67
2022-12-11T18:17:10.714Z,34.47
2022-12-11T18:19:41.417Z,30.73
2022-12-11T18:22:11.052Z,28.92
2022-12-11T18:24:37.598Z,27.67
2022-12-11T18:27:04.115Z,27.40
2022-12-11T18:29:30.410Z,27.92
2022-12-11T18:31:56.754Z,27.83
2022-12-11T18:34:23.110Z,27.70
2022-12-11T18:36:49.429Z,27.92
2022-12-11T18:39:16.141Z,29.83
2022-12-11T18:41:42.525Z,24.20
2022-12-11T18:44:10.123Z,24.42
2022-12-11T18:46:36.830Z,28.15
2022-12-11T18:49:03.360Z,25.67
2022-12-11T18:51:30.255Z,27.95
2022-12-11T18:53:56.567Z,25.23
2022-12-11T18:56:22.833Z,28.35
2022-12-11T18:58:49.461Z,24.27
2022-12-11T19:01:20.389Z,26.55
2022-12-11T19:03:47.418Z,23.85
2022-12-11T19:06:17.675Z,24.15
2022-12-11T19:08:44.323Z,25.35
2022-12-11T19:11:14.335Z,29.92
2022-12-11T19:13:40.651Z,23.02
2022-12-11T19:16:07.200Z,27.08
2022-12-11T19:18:33.602Z,24.20
2022-12-11T19:21:08.466Z,26.10
2022-12-11T19:23:35.275Z,25.73
2022-12-11T19:26:01.712Z,28.63
2022-12-11T19:28:28.015Z,26.02
2022-12-11T19:30:54.437Z,23.85
2022-12-11T19:33:21.061Z,26.92
2022-12-11T19:35:47.490Z,29.33
2022-12-11T19:38:14.281Z,28.42
2022-12-11T19:40:42.338Z,23.10
2022-12-11T19:43:09.101Z,29.83
2022-12-11T19:45:35.737Z,24.58
2022-12-11T19:48:02.096Z,27.20
2022-12-11T19:50:28.406Z,24.70
2022-12-11T19:52:55.071Z,23.75
2022-12-11T19:55:21.624Z,24.48
2022-12-11T19:57:48.059Z,26.70
2022-12-11T20:00:14.713Z,27.05
2022-12-11T20:02:41.485Z,30.00
2022-12-11T20:05:08.140Z,20.27
2022-12-11T20:07:34.503Z,21.80
2022-12-11T20:10:00.835Z,22.02
2022-12-11T20:12:27.369Z,23.83
2022-12-11T20:14:53.855Z,30.52
2022-12-11T20:17:20.141Z,23.13
2022-12-11T20:19:46.462Z,23.80
2022-12-11T20:22:12.759Z,25.38
2022-12-11T20:24:39.327Z,24.92
2022-12-11T20:27:05.629Z,23.85
2022-12-11T20:29:32.305Z,24.83
2022-12-11T20:32:00.397Z,25.75
2022-12-11T20:34:27.278Z,23.80
2022-12-11T20:36:54.046Z,26.02
2022-12-11T20:39:20.362Z,22.52
2022-12-11T20:41:46.691Z,22.92
2022-12-11T20:44:13.333Z,24.77
2022-12-11T20:46:39.655Z,22.50
2022-12-11T20:49:09.794Z,22.50
2022-12-11T20:51:36.130Z,25.83
2022-12-11T20:54:02.498Z,21.52
2022-12-11T20:56:29.614Z,21.67
2022-12-11T20:58:56.390Z,24.65
2022-12-11T21:01:23.347Z,23.98
2022-12-11T21:03:50.320Z,24.38
2022-12-11T21:06:19.621Z,22.58
2022-12-11T21:08:45.992Z,23.58
2022-12-11T21:11:12.696Z,24.02
2022-12-11T21:13:38.994Z,25.50
2022-12-11T21:16:06.242Z,22.23
2022-12-11T21:18:33.357Z,19.95
2022-12-11T21:20:59.889Z,24.30
2022-12-11T21:23:26.405Z,25.02
2022-12-11T21:25:53.266Z,22.35
2022-12-11T21:28:19.674Z,22.83
2022-12-11T21:30:46.205Z,26.02
2022-12-11T21:33:12.733Z,22.23
2022-12-11T21:35:39.308Z,23.83
2022-12-11T21:38:05.665Z,25.17
2022-12-11T21:40:31.940Z,21.90
2022-12-11T21:42:58.252Z,21.85
2022-12-11T21:45:59.706Z,23.58
2022-12-11T21:48:11.520Z,26.95
2022-12-11T21:50:37.752Z,21.48
2022-12-11T21:53:04.359Z,21.05
2022-12-11T21:55:30.670Z,25.27
2022-12-11T21:57:56.975Z,23.90
2022-12-11T22:00:23.384Z,24.92
2022-12-11T22:02:49.894Z,24.48
2022-12-11T22:05:16.323Z,21.95
2022-12-11T22:07:42.677Z,24.83
2022-12-11T22:10:09.276Z,23.65
2022-12-11T22:12:35.615Z,22.25
2022-12-11T22:15:02.121Z,22.15
2022-12-11T22:17:28.518Z,25.70
2022-12-11T22:19:54.811Z,25.48
2022-12-11T22:22:21.262Z,25.20
2022-12-11T22:24:47.622Z,20.25
2022-12-11T22:27:16.805Z,25.25
2022-12-11T22:29:46.856Z,23.88
2022-12-11T22:32:13.405Z,25.05
2022-12-11T22:34:40.416Z,22.73
2022-12-11T22:37:06.711Z,24.63
2022-12-11T22:39:32.971Z,22.00
2022-12-11T22:41:59.682Z,22.98
2022-12-11T22:44:25.978Z,22.90
2022-12-11T22:46:52.284Z,24.75
2022-12-11T22:49:19.376Z,23.70
2022-12-11T22:51:45.953Z,26.85
2022-12-11T22:54:12.658Z,24.08
2022-12-11T22:56:39.132Z,24.02
2022-12-11T22:59:07.352Z,26.73
2022-12-11T23:01:34.169Z,26.52
2022-12-11T23:04:00.519Z,22.73
2022-12-11T23:06:26.848Z,22.05
2022-12-11T23:08:55.057Z,23.23
2022-12-11T23:11:26.317Z,23.67
2022-12-11T23:13:53.634Z,25.08
2022-12-11T23:16:20.234Z,21.98
2022-12-11T23:18:46.613Z,23.20
2022-12-11T23:21:13.519Z,26.08
2022-12-11T23:23:39.825Z,25.38
2022-12-11T23:26:06.797Z,25.30
2022-12-11T23:28:33.227Z,24.00
2022-12-11T23:30:59.660Z,25.23
2022-12-11T23:33:26.188Z,22.10
2022-12-11T23:35:52.489Z,26.85
2022-12-11T23:38:18.788Z,21.13
2022-12-11T23:40:45.084Z,29.02
2022-12-11T23:43:11.668Z,23.17
2022-12-11T23:45:37.962Z,23.15
2022-12-11T23:48:04.445Z,24.67
2022-12-11T23:50:32.768Z,26.50
2022-12-11T23:52:59.080Z,19.92
2022-12-11T23:55:25.443Z,23.52
2022-12-11T23:57:51.701Z,24.85
